createdAt,value
2018-11-22T00:00:33.109Z,102620.32
2018-11-22T00:01:35.173Z,102624.70
2018-11-22T00:02:37.224Z,102618.05
2018-11-22T00:03:39.257Z,102619.38
2018-11-22T00:04:41.290Z,102617.17
2018-11-22T00:06:58.436Z,102617.66
2018-11-22T00:08:01.032Z,102615.94
2018-11-22T00:09:03.675Z,102618.60
2018-11-22T00:10:06.741Z,102617.27
2018-11-22T00:11:08.784Z,102614.22
2018-11-22T00:12:10.812Z,102611.56
2018-11-22T00:13:12.839Z,102609.34
2018-11-22T00:14:14.871Z,102612.89
2018-11-22T00:15:17.580Z,102608.02
2018-11-22T00:16:19.615Z,102605.84
2018-11-22T00:17:21.647Z,102606.69
2018-11-22T00:18:23.672Z,102606.78
2018-11-22T00:19:25.691Z,102604.97
2018-11-22T00:20:27.838Z,102602.30
2018-11-22T00:21:29.882Z,102598.80
2018-11-22T00:22:31.909Z,102601.84
2018-11-22T00:23:33.948Z,102597.92
2018-11-22T00:24:35.980Z,102598.31
2018-11-22T00:25:38.020Z,102597.47
2018-11-22T00:27:55.179Z,102591.27
2018-11-22T00:28:57.219Z,102596.59
2018-11-22T00:29:59.243Z,102591.75
2018-11-22T00:31:01.263Z,102593.09
2018-11-22T00:32:03.360Z,102598.41
2018-11-22T00:33:05.399Z,102588.70
2018-11-22T00:34:07.404Z,102590.98
2018-11-22T00:35:11.093Z,102588.70
2018-11-22T00:36:13.119Z,102586.11
2018-11-22T00:37:15.157Z,102585.17
2018-11-22T00:38:17.190Z,102584.78
2018-11-22T00:39:19.212Z,102581.66
2018-11-22T00:40:22.801Z,102583.91
2018-11-22T00:41:26.036Z,102569.27
2018-11-22T00:42:28.070Z,102571.08
2018-11-22T00:43:30.092Z,102566.59
2018-11-22T00:44:32.123Z,102567.55
2018-11-22T00:45:34.161Z,102570.69
2018-11-22T00:46:36.195Z,102566.70
2018-11-22T00:47:38.547Z,102567.09
2018-11-22T00:48:40.569Z,102569.36
2018-11-22T00:49:42.608Z,102562.22
2018-11-22T00:50:44.636Z,102564.04
2018-11-22T00:51:46.655Z,102554.23
2018-11-22T00:54:04.639Z,102548.52
2018-11-22T00:55:08.596Z,102547.12
2018-11-22T00:56:10.633Z,102547.12
2018-11-22T00:57:12.672Z,102550.63
2018-11-22T00:59:29.806Z,102549.85
2018-11-22T01:00:31.868Z,102557.28
2018-11-22T01:01:33.900Z,102550.63
2018-11-22T01:02:35.931Z,102562.22
2018-11-22T01:03:38.101Z,102554.63
2018-11-22T01:04:40.134Z,102559.56
2018-11-22T01:05:42.172Z,102564.42
2018-11-22T01:06:44.239Z,102564.88
2018-11-22T01:07:46.364Z,102568.87
2018-11-22T01:08:48.407Z,102563.65
2018-11-22T01:09:50.438Z,102570.20
2018-11-22T01:10:52.464Z,102569.36
2018-11-22T01:11:54.498Z,102563.65
2018-11-22T01:12:57.976Z,102558.33
2018-11-22T01:14:00.026Z,102562.70
2018-11-22T01:15:02.045Z,102567.16
2018-11-22T01:16:04.111Z,102562.31
2018-11-22T01:17:06.154Z,102560.98
2018-11-22T01:18:08.175Z,102564.11
2018-11-22T01:19:10.218Z,102566.77
2018-11-22T01:20:32.383Z,102564.59
2018-11-22T01:21:34.772Z,102560.11
2018-11-22T01:22:36.795Z,102564.11
2018-11-22T01:23:38.823Z,102574.75
2018-11-22T01:24:40.862Z,102581.41
2018-11-22T01:25:42.891Z,102570.75
2018-11-22T01:26:44.924Z,102580.07
2018-11-22T01:27:46.948Z,102580.56
2018-11-22T01:28:48.978Z,102577.51
2018-11-22T01:29:51.015Z,102578.35
2018-11-22T01:30:53.043Z,102584.55
2018-11-22T01:31:55.064Z,102573.03
2018-11-22T01:32:57.545Z,102579.68
2018-11-22T01:33:59.571Z,102578.35
2018-11-22T01:35:01.617Z,102576.17
2018-11-22T01:36:03.902Z,102580.17
2018-11-22T01:37:05.933Z,102579.30
2018-11-22T01:38:07.955Z,102570.37
2018-11-22T01:39:11.043Z,102576.17
2018-11-22T01:41:29.512Z,102569.98
2018-11-22T01:42:31.602Z,102573.52
2018-11-22T01:43:35.456Z,102574.75
2018-11-22T01:44:37.485Z,102565.92
2018-11-22T01:45:39.525Z,102573.03
2018-11-22T01:46:41.556Z,102570.37
2018-11-22T01:47:43.589Z,102577.02
2018-11-22T01:48:45.611Z,102573.52
2018-11-22T01:49:47.654Z,102576.17
2018-11-22T01:50:49.685Z,102574.84
2018-11-22T01:51:51.812Z,102579.30
2018-11-22T01:52:53.855Z,102574.91
2018-11-22T01:53:55.883Z,102574.07
2018-11-22T01:54:57.913Z,102576.24
2018-11-22T01:55:59.956Z,102574.52
2018-11-22T01:57:01.982Z,102579.45
2018-11-22T01:58:04.095Z,102571.86
2018-11-22T01:59:06.131Z,102567.48
2018-11-22T02:00:27.672Z,102574.13
2018-11-22T02:01:29.725Z,102572.80
2018-11-22T02:02:31.757Z,102581.17
2018-11-22T02:03:33.784Z,102578.13
2018-11-22T02:04:35.819Z,102582.12
2018-11-22T02:05:37.854Z,102573.36
2018-11-22T02:06:39.891Z,102569.36
2018-11-22T02:07:41.924Z,102564.04
2018-11-22T02:08:43.957Z,102565.47
2018-11-22T02:09:45.980Z,102565.37
2018-11-22T02:10:48.005Z,102563.66
2018-11-22T02:11:50.088Z,102558.82
2018-11-22T02:12:52.135Z,102554.83
2018-11-22T02:13:54.160Z,102561.09
2018-11-22T02:14:56.820Z,102560.60
2018-11-22T02:15:58.848Z,102558.04
2018-11-22T02:17:00.905Z,102552.23
2018-11-22T02:18:02.952Z,102556.22
2018-11-22T02:19:05.042Z,102550.12
2018-11-22T02:20:09.417Z,102545.19
2018-11-22T02:21:11.443Z,102545.67
2018-11-22T02:22:13.484Z,102546.13
2018-11-22T02:23:15.484Z,102543.47
2018-11-22T02:24:17.503Z,102542.14
2018-11-22T02:25:20.788Z,102531.11
2018-11-22T02:26:22.811Z,102537.76
2018-11-22T02:27:24.955Z,102527.12
2018-11-22T02:28:26.979Z,102539.09
2018-11-22T02:29:29.000Z,102533.77
2018-11-22T02:30:31.025Z,102544.02
2018-11-22T02:31:33.051Z,102544.96
2018-11-22T02:32:35.104Z,102539.19
2018-11-22T02:33:37.151Z,102542.79
2018-11-22T02:34:39.175Z,102550.28
2018-11-22T02:35:41.199Z,102544.96
2018-11-22T02:36:43.220Z,102539.25
2018-11-22T02:39:00.347Z,102529.48
2018-11-22T02:40:02.393Z,102532.98
2018-11-22T02:41:04.413Z,102532.53
2018-11-22T02:42:06.949Z,102521.95
2018-11-22T02:43:08.960Z,102529.48
2018-11-22T02:44:10.984Z,102523.67
2018-11-22T02:45:14.412Z,102523.28
2018-11-22T02:46:16.448Z,102530.81
2018-11-22T02:47:18.471Z,102521.02
2018-11-22T02:48:20.611Z,102529.94
2018-11-22T02:49:22.634Z,102521.50
2018-11-22T02:50:24.991Z,102527.67
2018-11-22T02:51:27.002Z,102517.97
2018-11-22T02:52:29.016Z,102519.30
2018-11-22T02:53:31.158Z,102522.84
2018-11-22T02:54:33.188Z,102517.90
2018-11-22T02:55:35.213Z,102517.97
2018-11-22T02:56:37.236Z,102522.34
2018-11-22T02:57:39.906Z,102517.52
2018-11-22T02:58:42.068Z,102517.97
2018-11-22T02:59:44.090Z,102513.03
2018-11-22T03:00:46.558Z,102507.32
2018-11-22T03:01:48.584Z,102512.64
2018-11-22T03:02:50.998Z,102503.72
2018-11-22T03:03:53.032Z,102509.53
2018-11-22T03:04:55.072Z,102503.72
2018-11-22T03:05:57.092Z,102506.38
2018-11-22T03:06:59.114Z,102507.72
2018-11-22T03:08:25.206Z,102508.10
2018-11-22T03:09:27.267Z,102508.59
2018-11-22T03:10:29.307Z,102512.97
2018-11-22T03:11:31.346Z,102501.45
2018-11-22T03:12:33.384Z,102511.16
2018-11-22T03:13:35.426Z,102499.73
2018-11-22T03:14:37.475Z,102505.05
2018-11-22T03:15:39.497Z,102503.72
2018-11-22T12:16:04.928Z,102512.44
2018-11-22T12:17:07.533Z,102503.67
2018-11-22T12:18:10.136Z,102507.77
2018-11-22T12:19:12.790Z,102512.72
2018-11-22T12:20:16.065Z,102506.69
2018-11-22T12:21:18.654Z,102506.80
2018-11-22T12:22:21.252Z,102503.33
2018-11-22T12:23:23.912Z,102501.75
2018-11-22T12:24:26.680Z,102507.58
2018-11-22T12:25:29.504Z,102510.80
2018-11-22T12:26:32.108Z,102503.83
2018-11-22T12:27:34.699Z,102505.72
2018-11-22T12:28:37.288Z,102509.82
2018-11-22T12:29:39.901Z,102516.55
2018-11-22T12:30:42.496Z,102506.45
2018-11-22T12:31:45.089Z,102507.89
2018-11-22T12:32:53.156Z,102510.63
2018-11-22T12:34:01.390Z,102513.30
2018-11-22T12:35:09.761Z,102512.52
2018-11-22T12:36:17.868Z,102505.55
2018-11-22T12:37:25.964Z,102504.32
2018-11-22T12:38:31.603Z,102502.22
2018-11-22T12:39:34.320Z,102499.72
2018-11-22T12:40:37.622Z,102505.05
2018-11-22T12:41:39.592Z,102498.56
2018-11-22T12:42:42.216Z,102499.97
2018-11-22T12:43:44.856Z,102498.73
2018-11-22T12:44:47.448Z,102498.81
2018-11-22T12:45:50.052Z,102493.20
2018-11-22T12:46:52.651Z,102492.33
2018-11-22T12:47:55.289Z,102483.95
2018-11-22T12:48:57.876Z,102486.23
2018-11-22T12:50:01.240Z,102481.36
2018-11-22T12:51:03.874Z,102484.51
2018-11-22T12:52:06.506Z,102482.30
2018-11-22T12:53:09.114Z,102482.41
2018-11-22T12:54:11.712Z,102486.78
2018-11-22T12:55:14.376Z,102485.45
2018-11-22T12:56:16.994Z,102452.33
2018-11-22T12:57:19.612Z,102486.40
2018-11-22T12:58:22.260Z,102488.19
2018-11-22T12:59:24.861Z,102484.68
2018-11-22T13:00:27.481Z,102484.19
2018-11-22T13:01:30.107Z,102486.47
2018-11-22T13:02:32.788Z,102492.67
2018-11-22T13:03:35.413Z,102494.56
2018-11-22T13:04:38.028Z,102490.08
2018-11-22T13:05:40.657Z,102496.34
2018-11-22T13:06:43.268Z,102500.34
2018-11-22T13:07:45.883Z,102506.16
2018-11-22T13:08:48.486Z,102503.49
2018-11-22T13:09:51.136Z,102504.34
2018-11-22T13:10:53.754Z,102502.62
2018-11-22T13:11:56.352Z,102509.77
2018-11-22T13:12:58.966Z,102505.84
2018-11-22T13:14:01.693Z,102495.58
2018-11-22T13:15:04.561Z,102500.90
2018-11-22T13:16:07.168Z,102500.90
2018-11-22T13:17:10.077Z,102497.84
2018-11-22T13:18:12.690Z,102497.84
2018-11-22T13:19:15.653Z,102495.67
2018-11-22T13:20:19.711Z,102488.25
2018-11-22T13:21:22.310Z,102489.58
2018-11-22T13:22:24.932Z,102494.03
2018-11-22T13:23:27.612Z,102490.03
2018-11-22T13:24:30.204Z,102491.86
2018-11-22T13:25:32.835Z,102495.36
2018-11-22T13:26:35.453Z,102494.13
2018-11-22T13:27:38.064Z,102498.58
2018-11-22T13:28:40.652Z,102497.25
2018-11-22T13:29:43.284Z,102500.40
2018-11-22T13:30:46.566Z,102495.08
2018-11-22T13:31:49.161Z,102494.69
2018-11-22T13:32:52.557Z,102495.53
2018-11-22T13:33:55.200Z,102495.14
2018-11-22T13:34:57.808Z,102493.81
2018-11-22T13:36:00.423Z,102499.13
2018-11-22T13:37:03.055Z,102492.09
2018-11-22T13:38:05.673Z,102487.26
2018-11-22T13:39:09.716Z,102487.72
2018-11-22T13:40:12.711Z,102489.05
2018-11-22T13:41:15.334Z,102485.53
2018-11-22T13:42:17.940Z,102491.70
2018-11-22T13:43:20.536Z,102492.65
2018-11-22T13:44:23.320Z,102493.53
2018-11-22T13:45:27.166Z,102492.65
2018-11-22T13:46:29.770Z,102497.09
2018-11-22T13:47:32.388Z,102484.73
2018-11-22T13:48:34.980Z,102487.88
2018-11-22T13:49:37.595Z,102490.05
2018-11-22T13:50:42.167Z,102488.34
2018-11-22T13:51:42.943Z,102482.89
2018-11-22T13:52:46.497Z,102495.09
2018-11-22T13:53:49.099Z,102491.10
2018-11-22T13:54:51.688Z,102492.82
2018-11-22T13:55:54.277Z,102488.44
2018-11-22T13:56:56.922Z,102486.34
2018-11-22T13:57:59.580Z,102490.33
2018-11-22T13:59:02.221Z,102491.66
2018-11-22T14:00:12.972Z,102486.79
2018-11-22T14:01:15.629Z,102488.61
2018-11-22T14:02:18.292Z,102488.13
2018-11-22T14:03:20.924Z,102490.88
2018-11-22T14:04:23.531Z,102492.67
2018-11-22T14:05:26.220Z,102494.00
2018-11-22T14:06:28.900Z,102493.16
2018-11-22T14:07:31.508Z,102490.88
2018-11-22T14:08:34.112Z,102491.34
2018-11-22T14:09:36.716Z,102486.89
2018-11-22T14:10:39.330Z,102487.73
2018-11-22T14:11:42.767Z,102481.56
2018-11-22T14:12:45.464Z,102477.09
2018-11-22T14:13:48.071Z,102481.56
2018-11-22T14:14:50.664Z,102481.56
2018-11-22T14:15:53.265Z,102489.06
2018-11-22T14:16:56.540Z,102491.27
2018-11-22T14:17:59.913Z,102486.89
2018-11-22T14:19:02.552Z,102487.73
2018-11-22T14:20:07.196Z,102487.84
2018-11-22T14:21:09.847Z,102486.89
2018-11-22T14:22:12.436Z,102482.51
2018-11-22T14:23:15.059Z,102479.84
2018-11-22T14:24:17.668Z,102486.02
2018-11-22T14:25:20.324Z,102486.02
2018-11-22T14:26:22.932Z,102479.84
2018-11-22T14:27:25.575Z,102478.52
2018-11-22T14:28:28.193Z,102482.51
2018-11-22T14:29:30.788Z,102476.41
2018-11-22T14:30:34.600Z,102478.97
2018-11-22T14:31:37.197Z,102487.06
2018-11-22T14:32:40.700Z,102487.06
2018-11-22T14:33:43.300Z,102493.72
2018-11-22T14:34:45.918Z,102495.11
2018-11-22T14:35:48.568Z,102502.26
2018-11-22T14:36:51.185Z,102498.27
2018-11-22T14:37:53.824Z,102496.16
2018-11-22T14:38:56.420Z,102491.78
2018-11-22T14:39:59.008Z,102499.77
2018-11-22T14:41:01.625Z,102502.42
2018-11-22T14:42:04.355Z,102497.66
2018-11-22T14:43:07.012Z,102509.14
2018-11-22T14:44:09.612Z,102506.59
2018-11-22T14:45:13.242Z,102505.25
2018-11-22T14:46:15.856Z,102503.92
2018-11-22T14:47:18.569Z,102497.27
2018-11-22T14:48:21.209Z,102492.41
2018-11-22T14:49:23.804Z,102485.84
2018-11-22T14:50:29.398Z,102488.02
2018-11-22T14:51:36.220Z,102488.51
2018-11-22T14:52:39.184Z,102494.67
2018-11-22T14:53:41.809Z,102496.01
2018-11-22T14:54:44.428Z,102496.88
2018-11-22T14:55:47.141Z,102492.50
2018-11-22T14:56:49.752Z,102492.02
2018-11-22T14:57:52.352Z,102501.81
2018-11-22T14:58:54.968Z,102500.94
2018-11-22T14:59:57.584Z,102502.20
2018-11-22T15:01:00.221Z,102500.06
2018-11-22T15:02:02.825Z,102504.55
2018-11-22T15:03:05.657Z,102506.72
2018-11-22T15:04:08.252Z,102505.00
2018-11-22T15:05:11.665Z,102507.27
2018-11-22T15:06:14.275Z,102507.27
2018-11-22T15:07:17.325Z,102505.94
2018-11-22T15:08:19.576Z,102504.61
2018-11-22T15:09:22.265Z,102505.10
2018-11-22T15:10:24.864Z,102508.15
2018-11-22T15:11:27.529Z,102499.29
2018-11-22T15:12:30.128Z,102508.61
2018-11-22T15:13:32.845Z,102507.27
2018-11-22T15:14:35.552Z,102508.22
2018-11-22T15:15:38.208Z,102506.88
2018-11-22T15:16:40.801Z,102504.22
2018-11-22T15:17:43.440Z,102507.83
2018-11-22T15:18:46.029Z,102506.05
2018-11-22T15:19:48.737Z,102500.79
2018-11-22T15:20:51.340Z,102506.11
2018-11-22T15:21:53.941Z,102507.44
2018-11-22T15:22:56.547Z,102508.38
2018-11-22T15:23:59.237Z,102511.05
2018-11-22T15:25:02.096Z,102509.33
2018-11-22T15:26:04.750Z,102514.65
2018-11-22T15:27:07.355Z,102505.72
2018-11-22T15:28:09.950Z,102502.67
2018-11-22T15:29:12.544Z,102498.30
2018-11-22T15:30:18.718Z,102494.79
2018-11-22T15:31:21.312Z,102501.83
2018-11-22T15:32:23.900Z,102501.34
2018-11-22T15:33:26.496Z,102504.95
2018-11-22T15:34:29.085Z,102508.94
2018-11-22T15:35:31.712Z,102510.27
2018-11-22T15:36:34.307Z,102507.61
2018-11-22T15:37:37.048Z,102504.95
2018-11-22T15:38:39.636Z,102509.33
2018-11-22T15:39:42.224Z,102508.94
2018-11-22T15:40:44.876Z,102509.33
2018-11-22T15:41:47.480Z,102507.99
2018-11-22T15:42:51.473Z,102514.26
2018-11-22T15:43:54.164Z,102488.09
2018-11-22T15:44:56.777Z,102511.53
2018-11-22T15:45:59.418Z,102511.98
2018-11-22T15:47:02.023Z,102512.92
2018-11-22T15:48:05.021Z,102515.59
2018-11-22T15:49:07.638Z,102514.65
2018-11-22T15:50:14.666Z,102514.19
2018-11-22T15:51:17.274Z,102519.02
2018-11-22T15:52:19.886Z,102521.69
2018-11-22T15:53:22.481Z,102527.02
2018-11-22T15:54:25.192Z,102527.89
2018-11-22T15:55:28.139Z,102520.36
2018-11-22T15:56:30.772Z,102519.91
2018-11-22T15:57:33.420Z,102526.45
2018-11-22T15:58:36.024Z,102528.73
2018-11-22T15:59:38.649Z,102524.73
2018-11-22T16:00:41.248Z,102525.13
2018-11-22T16:01:43.849Z,102519.80
2018-11-22T16:02:47.038Z,102524.28
2018-11-22T16:03:49.660Z,102526.00
2018-11-22T16:04:52.265Z,102536.64
2018-11-22T16:05:54.887Z,102530.45
2018-11-22T16:06:57.507Z,102527.78
2018-11-22T16:08:00.108Z,102528.17
2018-11-22T16:09:03.044Z,102523.80
2018-11-22T16:10:08.412Z,102527.78
2018-11-22T16:11:15.003Z,102525.06
2018-11-22T16:12:13.740Z,102529.05
2018-11-22T16:13:16.348Z,102523.73
2018-11-22T16:14:18.948Z,102525.52
2018-11-22T16:15:30.293Z,102531.22
2018-11-22T16:16:32.920Z,102533.88
2018-11-22T16:17:35.640Z,102533.44
2018-11-22T16:18:38.240Z,102532.55
2018-11-22T16:19:40.849Z,102529.05
2018-11-22T16:20:43.472Z,102532.66
2018-11-22T16:21:46.080Z,102521.52
2018-11-22T16:22:48.688Z,102529.51
2018-11-22T16:23:51.296Z,102524.57
2018-11-22T16:24:53.911Z,102526.39
2018-11-22T16:25:56.507Z,102521.13
2018-11-22T16:26:59.108Z,102524.67
2018-11-22T16:28:01.766Z,102525.06
2018-11-22T16:29:04.692Z,102522.01
2018-11-22T16:30:11.108Z,102523.34
2018-11-22T16:31:13.596Z,102522.85
2018-11-22T16:32:16.196Z,102526.00
2018-11-22T16:33:18.792Z,102522.85
2018-11-22T16:34:21.397Z,102516.36
2018-11-22T16:35:24.798Z,102521.52
2018-11-22T16:36:27.408Z,102530.00
2018-11-22T16:37:30.021Z,102537.48
2018-11-22T16:38:32.627Z,102529.61
2018-11-22T16:39:35.235Z,102529.12
2018-11-22T16:40:37.868Z,102533.05
2018-11-22T16:41:40.486Z,102528.66
2018-11-22T16:42:44.184Z,102533.11
2018-11-22T16:43:46.826Z,102534.83
2018-11-22T16:44:49.444Z,102535.31
2018-11-22T16:45:52.072Z,102534.44
2018-11-22T16:46:54.916Z,102538.44
2018-11-22T16:47:58.765Z,102540.15
2018-11-22T16:49:01.362Z,102544.63
2018-11-22T16:50:04.101Z,102539.31
2018-11-22T16:51:06.715Z,102539.38
2018-11-22T16:52:09.335Z,102542.03
2018-11-22T16:53:12.006Z,102542.03
2018-11-22T16:54:14.621Z,102536.33
2018-11-22T16:55:17.795Z,102538.05
2018-11-22T16:56:20.396Z,102532.27
2018-11-22T16:57:23.004Z,102539.38
2018-11-22T16:58:25.632Z,102540.70
2018-11-22T16:59:28.263Z,102526.17
2018-11-22T17:00:35.831Z,102534.54
2018-11-22T17:01:38.444Z,102533.28
2018-11-22T17:02:41.076Z,102529.28
2018-11-22T17:03:43.752Z,102535.94
2018-11-22T17:04:46.367Z,102537.27
2018-11-22T17:05:49.013Z,102535.94
2018-11-22T17:06:51.617Z,102539.53
2018-11-22T17:07:54.283Z,102540.02
2018-11-22T17:08:56.897Z,102538.70
2018-11-22T17:09:59.512Z,102534.22
2018-11-22T17:11:02.364Z,102546.68
2018-11-22T17:12:04.861Z,102544.47
2018-11-22T17:13:07.532Z,102533.38
2018-11-22T17:14:10.123Z,102529.84
2018-11-22T17:15:14.343Z,102530.22
2018-11-22T17:16:17.073Z,102530.71
2018-11-22T17:17:19.616Z,102528.89
2018-11-22T17:18:22.219Z,102527.56
2018-11-22T17:19:24.832Z,102526.33
2018-11-22T17:20:28.519Z,102521.40
2018-11-22T17:21:31.128Z,102525.45
2018-11-22T17:22:33.736Z,102512.16
2018-11-22T17:23:36.332Z,102521.47
2018-11-22T17:24:38.937Z,102521.47
2018-11-22T17:25:41.544Z,102510.43
2018-11-22T17:26:44.232Z,102521.95
2018-11-22T17:27:47.739Z,102512.70
2018-11-22T17:28:50.372Z,102514.91
2018-11-22T17:29:52.986Z,102525.55
2018-11-22T17:30:55.608Z,102513.19
2018-11-22T17:31:58.211Z,102523.34
2018-11-22T17:33:00.881Z,102525.16
2018-11-22T17:34:03.516Z,102526.01
2018-11-22T17:35:07.241Z,102524.67
2018-11-22T17:36:09.849Z,102535.33
2018-11-22T17:37:12.465Z,102528.67
2018-11-22T17:38:15.137Z,102525.63
2018-11-22T17:39:17.872Z,102515.47
2018-11-22T17:40:53.577Z,102518.97
2018-11-22T17:41:56.196Z,102513.65
2018-11-22T17:42:59.068Z,102515.92
2018-11-22T17:44:01.680Z,102521.23
2018-11-22T17:45:05.400Z,102515.53
2018-11-22T17:46:07.992Z,102520.47
2018-11-22T17:47:10.608Z,102521.80
2018-11-22T17:48:13.237Z,102519.13
2018-11-22T17:49:17.954Z,102515.92
2018-11-22T17:50:21.767Z,102519.69
2018-11-22T17:51:24.401Z,102517.03
2018-11-22T17:52:27.017Z,102525.50
2018-11-22T17:53:29.608Z,102521.50
2018-11-22T17:54:32.225Z,102504.77
2018-11-22T17:55:35.080Z,102529.48
2018-11-22T17:56:37.706Z,102514.46
2018-11-22T17:57:40.505Z,102518.06
2018-11-22T17:58:43.163Z,102523.77
2018-11-22T17:59:45.800Z,102519.84
2018-11-22T18:00:50.449Z,102528.61
2018-11-22T18:01:53.104Z,102520.73
2018-11-22T18:02:56.936Z,102518.06
2018-11-22T18:03:59.551Z,102524.23
2018-11-22T18:05:02.257Z,102522.90
2018-11-22T18:06:05.157Z,102516.25
2018-11-22T18:07:07.767Z,102520.23
2018-11-22T18:08:10.365Z,102513.59
2018-11-22T18:09:13.052Z,102518.91
2018-11-22T18:10:18.109Z,102512.75
2018-11-22T18:11:20.748Z,102510.08
2018-11-22T18:12:23.357Z,102513.13
2018-11-22T18:13:25.996Z,102511.80
2018-11-22T18:14:28.598Z,102525.95
2018-11-22T18:15:33.692Z,102517.19
2018-11-22T18:16:36.341Z,102517.97
2018-11-22T18:17:39.024Z,102519.78
2018-11-22T18:18:41.695Z,102512.64
2018-11-22T18:19:44.329Z,102506.48
2018-11-22T18:20:46.939Z,102506.48
2018-11-22T18:21:49.654Z,102505.61
2018-11-22T18:22:53.601Z,102513.52
2018-11-22T18:23:56.192Z,102504.27
2018-11-22T18:24:58.987Z,102507.42
2018-11-22T18:26:01.663Z,102503.82
2018-11-22T18:27:04.566Z,102507.32
2018-11-22T18:28:07.436Z,102509.20
2018-11-22T18:29:10.220Z,102511.87
2018-11-22T18:30:30.909Z,102507.00
2018-11-22T18:31:33.585Z,102499.50
2018-11-22T18:32:36.283Z,102503.50
2018-11-22T18:33:38.997Z,102498.63
2018-11-22T18:34:41.684Z,102496.84
2018-11-22T18:35:44.339Z,102494.25
2018-11-22T18:36:46.981Z,102500.06
2018-11-22T18:37:49.587Z,102493.86
2018-11-22T18:38:52.198Z,102495.68
2018-11-22T18:39:54.987Z,102491.69
2018-11-22T18:40:57.611Z,102493.96
2018-11-22T18:42:00.233Z,102487.77
2018-11-22T18:43:03.483Z,102492.63
2018-11-22T18:44:06.132Z,102482.94
2018-11-22T18:45:10.813Z,102485.59
2018-11-22T18:46:13.767Z,102489.58
2018-11-22T18:47:17.469Z,102484.27
2018-11-22T18:48:20.615Z,102488.25
2018-11-22T18:49:23.238Z,102484.27
2018-11-22T18:50:26.880Z,102483.32
2018-11-22T18:51:29.496Z,102492.63
2018-11-22T18:52:32.129Z,102484.27
2018-11-22T18:53:34.791Z,102489.09
2018-11-22T18:54:37.461Z,102485.59
2018-11-22T18:55:40.076Z,102487.77
2018-11-22T18:56:42.704Z,102487.37
2018-11-22T18:57:45.592Z,102490.03
2018-11-22T18:58:48.203Z,102486.05
2018-11-22T18:59:50.977Z,102484.72
2018-11-22T19:00:53.612Z,102478.06
2018-11-22T19:01:56.208Z,102482.55
2018-11-22T19:03:00.390Z,102480.34
2018-11-22T19:04:03.041Z,102482.55
2018-11-22T19:05:06.399Z,102485.20
2018-11-22T19:06:08.948Z,102482.55
2018-11-22T19:07:11.597Z,102478.62
2018-11-22T19:08:14.213Z,102482.61
2018-11-22T19:09:16.820Z,102483.09
2018-11-22T19:10:24.740Z,102483.09
2018-11-22T19:11:27.420Z,102487.09
2018-11-22T19:12:30.038Z,102493.25
2018-11-22T19:13:32.645Z,102494.19
2018-11-22T19:14:35.272Z,102494.19
2018-11-22T19:15:40.425Z,102494.64
2018-11-22T19:16:43.162Z,102497.30
2018-11-22T19:17:46.005Z,102487.61
2018-11-22T19:18:48.712Z,102495.58
2018-11-22T19:19:51.300Z,102492.44
2018-11-22T19:20:53.964Z,102488.55
2018-11-22T19:21:56.733Z,102492.92
2018-11-22T19:23:00.356Z,102489.00
2018-11-22T19:24:02.969Z,102486.73
2018-11-22T19:25:06.125Z,102491.20
2018-11-22T19:26:08.748Z,102489.88
2018-11-22T19:27:11.448Z,102497.86
2018-11-22T19:28:14.064Z,102493.87
2018-11-22T19:29:16.687Z,102490.33
2018-11-22T19:30:21.940Z,102500.52
2018-11-22T19:31:24.546Z,102495.66
2018-11-22T19:32:27.271Z,102501.84
2018-11-22T19:33:29.879Z,102492.99
2018-11-22T19:34:32.513Z,102489.48
2018-11-22T19:35:37.013Z,102492.99
2018-11-22T19:36:39.732Z,102486.44
2018-11-22T19:37:42.669Z,102489.48
2018-11-22T19:38:45.277Z,102482.90
2018-11-22T19:39:47.884Z,102468.92
2018-11-22T19:40:50.511Z,102487.77
2018-11-22T19:41:53.116Z,102479.41
2018-11-22T19:42:56.968Z,102481.67
2018-11-22T19:43:59.572Z,102478.07
2018-11-22T19:45:02.204Z,102484.33
2018-11-22T19:46:05.153Z,102483.84
2018-11-22T19:47:07.788Z,102479.85
2018-11-22T19:48:10.438Z,102476.34
2018-11-22T19:49:13.101Z,102475.09
2018-11-22T19:50:17.279Z,102482.61
2018-11-22T19:51:19.905Z,102492.31
2018-11-22T19:52:22.508Z,102487.45
2018-11-22T19:53:25.404Z,102483.06
2018-11-22T19:54:28.011Z,102484.88
2018-11-22T19:55:31.843Z,102489.33
2018-11-22T19:56:34.514Z,102493.70
2018-11-22T19:57:37.160Z,102488.00
2018-11-22T19:58:39.884Z,102485.34
2018-11-22T19:59:42.537Z,102493.25
2018-11-22T20:00:45.157Z,102484.88
2018-11-22T20:01:47.757Z,102489.33
2018-11-22T20:02:51.244Z,102494.19
2018-11-22T20:03:53.954Z,102490.66
2018-11-22T20:04:56.584Z,102490.59
2018-11-22T20:05:59.188Z,102498.19
2018-11-22T20:07:01.804Z,102502.17
2018-11-22T20:08:06.398Z,102500.84
2018-11-22T20:09:10.180Z,102493.80
2018-11-22T20:10:19.261Z,102495.97
2018-11-22T20:11:21.871Z,102491.14
2018-11-22T20:12:24.573Z,102484.49
2018-11-22T20:13:27.180Z,102497.80
2018-11-22T20:14:29.839Z,102488.00
2018-11-22T20:15:32.881Z,102488.09
2018-11-22T20:16:35.528Z,102478.40
2018-11-22T20:17:38.364Z,102487.22
2018-11-22T20:18:40.984Z,102464.09
2018-11-22T20:19:43.714Z,102484.49
2018-11-22T20:20:50.000Z,102483.94
2018-11-22T20:21:48.986Z,102485.11
2018-11-22T20:22:52.056Z,102482.16
2018-11-22T20:23:54.943Z,102481.44
2018-11-22T20:24:57.589Z,102482.05
2018-11-22T20:26:00.192Z,102483.05
2018-11-22T20:27:02.800Z,102481.37
2018-11-22T20:28:05.589Z,102481.53
2018-11-22T20:29:08.186Z,102482.14
2018-11-22T20:30:18.850Z,102481.97
2018-11-22T20:31:21.468Z,102480.02
2018-11-22T20:32:24.401Z,102478.97
2018-11-22T20:33:27.032Z,102475.30
2018-11-22T20:34:29.647Z,102481.85
2018-11-22T20:35:32.466Z,102480.91
2018-11-22T20:36:35.076Z,102480.06
2018-11-22T20:37:37.675Z,102476.45
2018-11-22T20:38:40.288Z,102480.84
2018-11-22T20:39:42.901Z,102481.23
2018-11-22T20:40:45.544Z,102480.84
2018-11-22T20:41:48.152Z,102480.84
2018-11-22T20:42:50.781Z,102475.13
2018-11-22T20:43:53.408Z,102480.45
2018-11-22T20:44:56.053Z,102474.25
2018-11-22T20:45:58.684Z,102479.58
2018-11-22T20:47:01.291Z,102471.69
2018-11-22T20:48:05.252Z,102473.97
2018-11-22T20:49:07.860Z,102473.02
2018-11-22T20:50:12.913Z,102475.75
2018-11-22T20:51:15.552Z,102473.19
2018-11-22T20:52:18.141Z,102477.58
2018-11-22T20:53:20.748Z,102471.93
2018-11-22T20:54:23.362Z,102471.09
2018-11-22T20:55:28.356Z,102474.14
2018-11-22T20:56:31.000Z,102466.71
2018-11-22T20:57:33.665Z,102467.66
2018-11-22T20:58:36.268Z,102473.81
2018-11-22T20:59:39.197Z,102468.59
2018-11-22T21:00:42.104Z,102473.43
2018-11-22T21:01:44.720Z,102477.04
2018-11-22T21:02:47.365Z,102472.20
2018-11-22T21:03:49.972Z,102467.83
2018-11-22T21:04:52.576Z,102474.09